Jard de Oriente, Puerto Rico
Current Conditions -  °F | °C
As of 10:53 PM on Tuesday 21 Oct 2014 (Local Time) from TJNR Reporting Station
Few Clouds Few Clouds  
Wind Chill: 81°   Ceiling: Unl
Heat Index: 86°   Visibility: 10mi
Dew Point: 73°   Wind: 6mph
Humidity: 77%   Direction: 70°ENE
Pressure: 30"   Gusts: NA
Location:  18.1853°N, 65.8667°W
Report Text: TJNR 220253Z AUTO 07005KT 10SM FEW025 27/23 A3000 RMK AO2 SLP158 60000 T02720228 51013
Loading
Personal Weather Stations






























Interactive Weather Map
Tropical Storm Tracking
New forecast layout! Learn more

10-Day Weather Forecast

Advertisements
Track Severe Weather on mobile